Information for Hong Kong Intl

back to airport list

ICAO Code:VHHH Country:Hong Kong
Airport Name:Hong Kong Intl Is Hub:No
Latitude:22.308 Longitude:113.919
Scheduled Departures:0 Scheduled Arrivals:0
Total Past Departures:0 Total Past Arrivals:0
Pilots Based:0 Current Pilot Location:0
VHHH 242030Z 13007KT 100V160 9999 -SHRA FEW012 SCT025 29/25 Q1008 NOSIG


Nearby Destination Airports

ICAO Airport Country GC Distance View
VHHX Kai Tak Honk Kong 15 NM View Airport Page
VVDN Da Nang International Airport Vietnam 497 NM View Airport Page


+ Show Timetable

Scheduled Departures from VHHH

Flight To Destination Days Dep. Time Aircraft Info
No Scheduled Departures!


Scheduled Arrivals to VHHH

Flight From Origin Days Arr. Time Aircraft Info
No Scheduled Arrivals!
+ Show Recent Flight Info

Recent Departures from VHHH

Flight To Destination Pilot Flighttime Landingrate Aircraft View
No Recent Departure PIREPS!


Recent Arrivals to VHHH

Flight From Origin Pilot Flighttime Landingrate Aircraft View
No Recent Arrival PIREPS!
+ Show Pilot Information

Pilots based at VHHH

Avatar Pilot ID Name Location Rank View Profile
No Pilots are based at this airport!


Pilots currently at VHHH

Avatar Pilot ID Name Location Rank On Location since View Profile
Currently there are no pilots at this airport!
- Hide Map